Akron, New York
Current Conditions -  °F | °C
As of 12:36 AM on Friday 28 Nov 2014 (Local Time) from KBUF Reporting Station
Light Snow Light Snow  
Wind Chill: 14°   Ceiling: 1400
Heat Index: 27°   Visibility: 8mi
Dew Point: 22°   Wind: 17mph
Humidity: 81%   Direction: 300°WNW
Pressure: 30.14"   Gusts: 24mph
Location:  43.02°N, 78.5°W
Report Text: KBUF 280536Z 30015G21KT 8SM -SN SCT006 BKN014 OVC025 M03/M06 A3014 RMK AO2 P0007 T10281056
Loading
Personal Weather Stations






























Interactive Weather Map New forecast layout! Learn more

10-Day Weather Forecast

Advertisements
Track Severe Weather on mobile